createdAt,value
2023-05-10T00:48:00.837Z,9.43
2023-05-10T00:50:31.092Z,11.90
2023-05-10T00:53:00.297Z,8.73
2023-05-10T00:58:15.526Z,10.02
2023-05-10T01:00:49.093Z,12.60
2023-05-10T01:03:22.690Z,10.57
2023-05-10T01:05:54.094Z,12.30
2023-05-10T01:08:24.597Z,9.30
2023-05-10T01:10:54.603Z,8.35
2023-05-10T01:13:42.891Z,13.13
2023-05-10T01:18:55.547Z,10.45
2023-05-10T01:21:31.438Z,9.65
2023-05-10T01:24:04.821Z,9.57
2023-05-10T01:26:35.359Z,7.90
2023-05-10T01:29:12.570Z,11.75
2023-05-10T01:31:41.167Z,12.98
2023-05-10T01:34:17.971Z,11.80
2023-05-10T01:36:48.747Z,12.45
2023-05-10T01:39:16.002Z,9.32
2023-05-10T01:41:44.207Z,15.55
2023-05-10T01:44:16.316Z,9.98
2023-05-10T01:46:46.718Z,10.32
2023-05-10T01:49:16.573Z,11.30
2023-05-10T01:51:44.566Z,11.30
2023-05-10T01:54:15.201Z,18.92
2023-05-10T01:56:42.853Z,15.65
2023-05-10T02:01:57.055Z,14.88
2023-05-10T02:04:27.377Z,11.23
2023-05-10T02:06:56.149Z,17.98
2023-05-10T02:12:12.630Z,16.98
2023-05-10T02:14:41.235Z,20.52
2023-05-10T02:17:08.916Z,15.50
2023-05-10T02:19:36.220Z,18.25
2023-05-10T02:22:03.705Z,22.83
2023-05-10T02:24:30.913Z,13.60
2023-05-10T02:26:58.115Z,14.50
2023-05-10T02:29:25.423Z,18.92
2023-05-10T02:31:52.743Z,20.75
2023-05-10T02:34:20.192Z,18.92
2023-05-10T02:36:47.468Z,10.38
2023-05-10T02:39:14.891Z,11.20
2023-05-10T02:41:42.495Z,17.10
2023-05-10T02:44:10.167Z,12.65
2023-05-10T02:46:38.746Z,14.25
2023-05-10T02:49:06.800Z,16.90
2023-05-10T02:51:34.770Z,28.70
2023-05-10T02:54:02.029Z,16.00
2023-05-10T02:56:29.401Z,22.65
2023-05-10T02:58:57.347Z,27.20
2023-05-10T03:01:24.726Z,29.77
2023-05-10T03:03:51.970Z,28.25
2023-05-10T03:06:19.309Z,24.17
2023-05-10T03:08:46.772Z,23.88
2023-05-10T03:11:14.526Z,24.33
2023-05-10T03:13:42.221Z,16.88
2023-05-10T03:16:09.485Z,30.92
2023-05-10T03:18:36.862Z,37.38
2023-05-10T03:21:06.307Z,27.15
2023-05-10T03:23:34.648Z,20.88
2023-05-10T03:26:02.606Z,27.52
2023-05-10T03:28:30.897Z,39.30
2023-05-10T03:30:58.442Z,34.47
2023-05-10T03:33:26.007Z,38.90
2023-05-10T03:35:53.997Z,35.47
2023-05-10T03:38:21.243Z,30.20
2023-05-10T03:40:48.449Z,21.52
2023-05-10T03:43:15.734Z,24.25
2023-05-10T03:45:43.172Z,24.02
2023-05-10T03:48:10.388Z,30.25
2023-05-10T03:50:37.569Z,28.50
2023-05-10T03:53:05.257Z,47.80
2023-05-10T03:55:35.564Z,30.50
2023-05-10T03:58:02.954Z,39.30
2023-05-10T04:00:31.085Z,33.42
2023-05-10T04:02:58.423Z,32.45
2023-05-10T04:05:25.735Z,40.95
2023-05-10T04:07:54.006Z,39.10
2023-05-10T04:10:22.240Z,42.72
2023-05-10T04:12:49.511Z,43.13
2023-05-10T04:15:16.800Z,46.30
2023-05-10T04:17:44.093Z,44.80
2023-05-10T04:20:11.511Z,42.55
2023-05-10T04:22:38.790Z,39.10
2023-05-10T04:25:06.065Z,39.70
2023-05-10T04:27:33.321Z,47.03
2023-05-10T04:30:00.515Z,37.35
2023-05-10T04:32:27.750Z,38.92
2023-05-10T04:34:55.052Z,41.17
2023-05-10T04:37:23.983Z,31.77
2023-05-10T04:39:51.345Z,47.42
2023-05-10T04:42:18.595Z,36.17
2023-05-10T04:44:45.817Z,38.40
2023-05-10T05:24:04.828Z,25.90
2023-05-10T05:26:32.380Z,29.73
2023-05-10T05:28:59.620Z,19.70
2023-05-10T05:31:27.022Z,18.38
2023-05-10T05:33:54.353Z,16.05
2023-05-10T05:36:21.568Z,17.38
2023-05-10T05:38:49.082Z,14.55
2023-05-10T05:41:16.344Z,15.18
2023-05-10T05:43:44.795Z,12.57
2023-05-10T05:46:12.070Z,20.35
2023-05-10T05:48:39.397Z,11.48
2023-05-10T05:51:07.437Z,15.70
2023-05-10T05:53:34.914Z,16.63
2023-05-10T05:56:04.324Z,19.20
2023-05-10T05:58:31.603Z,11.65
2023-05-10T06:00:58.852Z,17.38
2023-05-10T06:03:26.214Z,11.90
2023-05-10T06:05:53.504Z,18.80
2023-05-10T06:08:21.332Z,15.05
2023-05-10T06:10:48.638Z,14.75
2023-05-10T06:13:16.645Z,18.27
2023-05-10T06:15:44.028Z,9.52
2023-05-10T06:18:11.337Z,12.77
2023-05-10T06:20:38.604Z,16.42
2023-05-10T06:23:05.970Z,12.73
2023-05-10T06:25:33.677Z,14.32
2023-05-10T06:28:00.959Z,19.40
2023-05-10T06:30:31.200Z,15.90
2023-05-10T06:32:59.299Z,10.00
2023-05-10T06:35:26.653Z,13.82
2023-05-10T06:37:54.202Z,20.42
2023-05-10T06:40:21.479Z,14.10
2023-05-10T06:42:48.772Z,14.20
2023-05-10T06:45:16.374Z,20.60
2023-05-10T06:47:43.915Z,10.57
2023-05-10T06:50:12.339Z,11.45
2023-05-10T06:52:39.819Z,10.77
2023-05-10T06:55:07.169Z,13.18
2023-05-10T06:57:34.371Z,14.93
2023-05-10T07:00:01.695Z,12.65
2023-05-10T07:02:29.206Z,10.43
2023-05-10T07:04:56.810Z,17.73
2023-05-10T07:07:24.370Z,13.20
2023-05-10T07:09:52.265Z,16.67
2023-05-10T07:12:19.488Z,17.20
2023-05-10T07:14:46.897Z,14.27
2023-05-10T07:17:14.107Z,13.73
2023-05-10T07:19:41.335Z,14.68
2023-05-10T07:22:08.847Z,17.73
2023-05-10T07:24:36.556Z,13.38
2023-05-10T07:27:03.825Z,18.45
2023-05-10T07:29:31.051Z,17.08
2023-05-10T07:31:59.092Z,10.85
2023-05-10T07:34:26.707Z,13.43
2023-05-10T07:36:54.210Z,10.40
2023-05-10T07:39:27.643Z,12.65
2023-05-10T07:41:55.436Z,12.48
2023-05-10T07:44:22.736Z,8.02
2023-05-10T07:46:50.013Z,13.13
2023-05-10T07:49:17.254Z,7.95
2023-05-10T07:51:44.585Z,11.75
2023-05-10T07:54:11.848Z,11.07
2023-05-10T07:56:40.720Z,13.07
2023-05-10T07:59:09.698Z,10.27
2023-05-10T08:01:38.117Z,10.50
2023-05-10T08:04:05.558Z,8.40
2023-05-10T08:06:32.947Z,12.40
2023-05-10T08:09:00.128Z,16.15
2023-05-10T08:11:28.917Z,17.55
2023-05-10T08:13:56.196Z,29.83
2023-05-10T08:16:23.736Z,28.00
2023-05-10T08:18:51.832Z,31.70
2023-05-10T08:21:19.294Z,27.98
2023-05-10T08:23:46.515Z,22.60
2023-05-10T08:26:13.829Z,19.90
2023-05-10T08:28:41.098Z,22.30
2023-05-10T08:31:08.417Z,26.95
2023-05-10T08:33:35.669Z,22.67
2023-05-10T08:36:03.947Z,23.83
2023-05-10T08:38:31.323Z,21.27
2023-05-10T08:40:59.522Z,16.38
2023-05-10T08:43:26.920Z,10.63
2023-05-10T08:45:54.246Z,9.65
2023-05-10T08:48:21.620Z,12.18
2023-05-10T08:50:48.827Z,8.13
2023-05-10T08:53:16.042Z,6.88
2023-05-10T08:55:43.880Z,6.00
2023-05-10T08:58:11.162Z,4.97
2023-05-10T09:00:38.850Z,7.03
2023-05-10T09:03:06.294Z,7.43
2023-05-10T09:05:33.579Z,5.93
2023-05-10T09:08:01.658Z,8.00
2023-05-10T09:10:28.985Z,6.85
2023-05-10T09:12:57.453Z,4.45
2023-05-10T09:15:26.901Z,4.78
2023-05-10T09:17:54.214Z,5.53
2023-05-10T09:20:21.684Z,4.68
2023-05-10T09:22:48.928Z,2.85
2023-05-10T09:25:16.404Z,3.28
2023-05-10T09:27:43.874Z,3.22
2023-05-10T09:30:11.100Z,5.30
2023-05-10T09:32:38.373Z,3.10
2023-05-10T09:35:05.835Z,3.78
2023-05-10T09:37:33.053Z,3.67
2023-05-10T09:40:00.552Z,6.20
2023-05-10T09:42:27.740Z,3.80
2023-05-10T09:44:55.002Z,6.20
2023-05-10T09:47:22.440Z,4.63
2023-05-10T09:49:49.617Z,3.83
2023-05-10T09:52:17.474Z,3.35
2023-05-10T09:54:44.686Z,4.53
2023-05-10T09:57:11.884Z,3.15
2023-05-10T09:59:39.068Z,2.65
2023-05-10T10:02:06.474Z,3.53
2023-05-10T10:04:33.920Z,2.65
2023-05-10T10:07:01.765Z,3.35
2023-05-10T10:09:28.976Z,2.50
2023-05-10T10:11:56.759Z,3.83
2023-05-10T10:14:24.955Z,2.63
2023-05-10T10:17:05.762Z,4.13
2023-05-10T10:19:34.363Z,3.20
2023-05-10T10:22:01.829Z,3.47
2023-05-10T10:24:29.191Z,4.20
2023-05-10T10:26:56.514Z,2.00
2023-05-10T10:29:23.774Z,3.00
2023-05-10T10:31:51.921Z,3.92
2023-05-10T10:34:19.195Z,3.22
2023-05-10T10:36:46.447Z,2.60
2023-05-10T10:39:13.791Z,3.35
2023-05-10T10:41:44.024Z,1.85
2023-05-10T10:44:11.316Z,3.95
2023-05-10T10:46:38.544Z,4.13
2023-05-10T10:49:05.842Z,2.90
2023-05-10T10:51:33.018Z,3.05
2023-05-10T10:54:00.306Z,3.55
2023-05-10T10:56:27.521Z,1.35
2023-05-10T10:58:54.941Z,4.63
2023-05-10T11:01:22.312Z,3.05
2023-05-10T11:03:50.506Z,4.75
2023-05-10T11:06:17.811Z,3.08
2023-05-10T11:08:45.206Z,2.80
2023-05-10T11:11:12.424Z,2.50
2023-05-10T11:13:39.687Z,2.45
2023-05-10T11:16:06.877Z,2.10
2023-05-10T11:18:34.275Z,2.25
2023-05-10T11:21:03.680Z,3.58
2023-05-10T11:23:31.321Z,2.53
2023-05-10T11:25:58.675Z,6.18
2023-05-10T11:28:26.010Z,1.75
2023-05-10T11:30:53.508Z,1.80
2023-05-10T11:33:21.013Z,4.72
2023-05-10T11:35:48.257Z,4.18
2023-05-10T11:38:15.939Z,1.45
2023-05-10T11:40:43.500Z,1.60
2023-05-10T11:43:11.648Z,3.65
2023-05-10T11:45:38.905Z,2.38
2023-05-10T11:48:06.214Z,2.65
2023-05-10T11:50:33.791Z,1.40
2023-05-10T11:53:01.027Z,4.25
2023-05-10T11:55:28.295Z,2.88
2023-05-10T11:57:55.656Z,2.45
2023-05-10T12:00:23.030Z,2.65
2023-05-10T12:02:51.085Z,2.45
2023-05-10T12:05:18.490Z,1.67
2023-05-10T12:07:45.779Z,6.75
2023-05-10T12:10:16.449Z,5.32
2023-05-10T12:12:44.015Z,1.38
2023-05-10T12:15:11.565Z,2.65
2023-05-10T12:17:39.887Z,1.95
2023-05-10T12:20:07.974Z,1.58
2023-05-10T12:22:35.968Z,4.38
2023-05-10T12:25:03.377Z,1.40
2023-05-10T12:27:30.893Z,3.65
2023-05-10T12:29:58.024Z,2.88
2023-05-10T12:32:27.815Z,2.50
2023-05-10T12:34:55.016Z,4.22
2023-05-10T12:37:22.322Z,4.63
2023-05-10T12:39:49.546Z,2.42
2023-05-10T12:42:16.766Z,1.55
2023-05-10T12:44:43.927Z,2.05
2023-05-10T12:47:11.883Z,2.05
2023-05-10T12:49:39.321Z,4.07
2023-05-10T12:52:06.720Z,4.82
2023-05-10T12:54:33.977Z,6.35
2023-05-10T12:57:01.265Z,3.35
2023-05-10T12:59:28.402Z,2.30
2023-05-10T13:01:55.811Z,1.60
2023-05-10T13:04:23.097Z,5.07
2023-05-10T13:06:50.443Z,3.03
2023-05-10T13:09:17.613Z,3.50
2023-05-10T13:11:45.111Z,2.65
2023-05-10T13:14:12.383Z,2.50
2023-05-10T13:16:39.628Z,2.67
2023-05-10T13:19:06.930Z,2.40
2023-05-10T13:21:34.239Z,2.45
2023-05-10T13:24:02.392Z,6.55
2023-05-10T13:26:32.829Z,3.08
2023-05-10T13:29:00.061Z,5.95
2023-05-10T13:31:27.411Z,2.88
2023-05-10T13:33:54.739Z,1.63
2023-05-10T13:36:22.162Z,1.98
2023-05-10T13:38:49.455Z,2.65
2023-05-10T13:41:19.535Z,4.70
2023-05-10T13:43:46.842Z,1.13
2023-05-10T13:46:14.031Z,2.42
2023-05-10T13:48:41.404Z,6.35
2023-05-10T13:51:08.579Z,2.28
2023-05-10T13:53:35.831Z,4.90
2023-05-10T13:56:03.955Z,4.18
2023-05-10T13:58:32.067Z,1.95
2023-05-10T14:00:59.232Z,2.67
2023-05-10T14:03:26.558Z,5.32
2023-05-10T14:05:53.795Z,6.00
2023-05-10T14:08:21.241Z,5.40
2023-05-10T14:10:49.791Z,4.22
2023-05-10T14:13:17.260Z,3.40
2023-05-10T14:15:44.503Z,6.57
2023-05-10T14:18:12.402Z,4.78
2023-05-10T14:20:39.621Z,5.78
2023-05-10T14:23:10.390Z,3.50
2023-05-10T14:25:39.179Z,2.17
2023-05-10T14:28:06.363Z,3.08
2023-05-10T14:30:36.651Z,3.17
2023-05-10T14:33:04.030Z,3.58
2023-05-10T14:35:32.245Z,2.58
2023-05-10T14:37:59.721Z,2.10
2023-05-10T14:40:27.072Z,1.75
2023-05-10T14:42:54.343Z,3.05
2023-05-10T14:45:21.580Z,1.85
2023-05-10T14:47:49.032Z,3.65
2023-05-10T14:50:32.185Z,3.03
2023-05-10T14:53:03.589Z,5.60
2023-05-10T14:55:31.084Z,2.20
2023-05-10T14:57:59.276Z,2.83
2023-05-10T15:00:26.989Z,5.90
2023-05-10T15:02:54.626Z,1.60
2023-05-10T15:05:22.440Z,4.45
2023-05-10T15:07:50.264Z,1.85
2023-05-10T15:10:17.529Z,2.78
2023-05-10T15:12:45.088Z,2.10
2023-05-10T15:15:12.347Z,2.22
2023-05-10T15:17:39.668Z,2.08
2023-05-10T15:20:07.212Z,2.92
2023-05-10T15:22:37.662Z,7.20
2023-05-10T15:25:08.100Z,5.40
2023-05-10T15:27:35.667Z,5.63
2023-05-10T15:30:02.936Z,8.18
2023-05-10T15:32:30.255Z,7.22
2023-05-10T15:34:57.489Z,4.10
2023-05-10T15:37:25.530Z,2.83
2023-05-10T15:39:52.740Z,4.95
2023-05-10T15:42:20.271Z,1.83
2023-05-10T15:44:51.170Z,2.58
2023-05-10T15:47:18.530Z,4.43
2023-05-10T15:49:45.985Z,1.02
2023-05-10T15:52:13.275Z,3.25
2023-05-10T15:54:40.499Z,7.72
2023-05-10T15:57:08.116Z,8.90
2023-05-10T15:59:35.995Z,17.25
2023-05-10T16:02:04.445Z,34.28
2023-05-10T16:04:31.655Z,16.92
2023-05-10T16:06:59.295Z,29.15
2023-05-10T16:09:26.564Z,32.03
2023-05-10T16:11:53.822Z,36.30
2023-05-10T16:14:24.828Z,42.13
2023-05-10T16:16:52.333Z,32.20
2023-05-10T16:19:19.739Z,42.67
2023-05-10T16:21:47.163Z,34.55
2023-05-10T16:24:14.471Z,31.20
2023-05-10T16:26:41.796Z,34.97
2023-05-10T16:29:09.084Z,46.28
2023-05-10T16:31:36.441Z,58.05
2023-05-10T16:34:03.903Z,40.72
2023-05-10T16:36:31.565Z,49.45
2023-05-10T16:38:59.053Z,52.63
2023-05-10T16:41:26.518Z,51.15
2023-05-10T16:43:53.764Z,48.22
2023-05-10T16:46:21.631Z,74.38
2023-05-10T16:48:48.903Z,72.55
2023-05-10T16:51:16.253Z,82.50
2023-05-10T16:53:43.558Z,95.03
2023-05-10T16:56:10.946Z,75.78
2023-05-10T16:58:38.284Z,70.10
2023-05-10T17:01:05.511Z,106.97
2023-05-10T17:03:32.797Z,97.57
2023-05-10T17:06:00.226Z,105.97
2023-05-10T17:08:27.431Z,94.47
2023-05-10T17:10:54.684Z,131.73
2023-05-10T17:13:22.216Z,96.68
2023-05-10T17:15:49.658Z,92.72
2023-05-10T17:18:17.359Z,100.82
2023-05-10T17:20:45.169Z,121.97
2023-05-10T17:23:12.479Z,97.57
2023-05-10T17:25:39.791Z,145.35
2023-05-10T17:28:07.449Z,111.07
2023-05-10T17:30:34.870Z,141.77
2023-05-10T17:33:02.287Z,84.57
2023-05-10T17:35:30.719Z,120.15
2023-05-10T17:37:58.285Z,139.10
2023-05-10T17:40:25.579Z,144.10
2023-05-10T17:42:52.930Z,123.28
2023-05-10T17:45:20.204Z,127.32
2023-05-10T17:47:47.468Z,99.65
2023-05-10T17:50:14.704Z,116.18
2023-05-10T17:52:42.058Z,95.72
2023-05-10T17:55:09.306Z,110.28
2023-05-10T17:57:39.378Z,108.13
2023-05-10T18:00:08.561Z,103.50
2023-05-10T18:02:36.480Z,108.88
2023-05-10T18:05:03.792Z,102.75
2023-05-10T18:07:31.123Z,81.03
2023-05-10T18:09:58.439Z,111.03
2023-05-10T18:12:25.799Z,89.75
2023-05-10T18:14:53.092Z,91.00
2023-05-10T18:17:20.378Z,77.47
2023-05-10T18:19:47.630Z,48.17
2023-05-10T18:22:14.913Z,62.38
2023-05-10T18:24:42.279Z,49.47
2023-05-10T18:27:09.620Z,54.83
2023-05-10T18:29:37.416Z,52.63
2023-05-10T18:32:07.361Z,51.47
2023-05-10T18:34:34.568Z,45.40
2023-05-10T18:37:02.541Z,49.70
2023-05-10T18:39:29.768Z,50.90
2023-05-10T18:41:57.201Z,42.70
2023-05-10T18:44:26.544Z,48.75
2023-05-10T18:46:54.356Z,64.50
2023-05-10T18:49:21.636Z,58.30
2023-05-10T18:51:48.822Z,74.93
2023-05-10T18:54:17.440Z,92.10
2023-05-10T18:56:45.372Z,91.65
2023-05-10T18:59:12.682Z,94.07
2023-05-10T19:01:40.397Z,105.60
2023-05-10T19:04:08.955Z,85.80
2023-05-10T19:06:36.214Z,112.97
2023-05-10T19:09:03.534Z,97.35
2023-05-10T19:11:32.970Z,96.35
2023-05-10T19:14:00.230Z,119.22
2023-05-10T19:16:27.975Z,84.82
2023-05-10T19:18:55.387Z,107.55
2023-05-10T19:21:22.972Z,99.72
2023-05-10T19:23:50.226Z,92.68
2023-05-10T19:26:17.399Z,119.28
2023-05-10T19:28:45.244Z,116.07
2023-05-10T19:31:12.565Z,125.28
2023-05-10T19:33:40.723Z,110.13
2023-05-10T19:36:09.179Z,100.78
2023-05-10T19:38:37.256Z,125.95
2023-05-10T19:41:04.569Z,96.32
2023-05-10T19:43:34.206Z,114.43
2023-05-10T19:46:01.853Z,21.83
2023-05-10T19:48:29.182Z,21.77
2023-05-10T19:50:56.479Z,19.33
2023-05-10T19:53:23.894Z,18.05
2023-05-10T19:55:51.335Z,18.88
2023-05-10T19:58:18.522Z,16.73
2023-05-10T20:00:46.116Z,14.10
2023-05-10T20:03:13.515Z,12.88
2023-05-10T20:05:41.989Z,8.88
2023-05-10T20:08:09.237Z,16.00
2023-05-10T20:10:36.624Z,17.67
2023-05-10T20:13:03.861Z,11.45
2023-05-10T20:15:31.112Z,21.38
2023-05-10T20:17:58.523Z,13.45
2023-05-10T20:20:25.868Z,20.35
2023-05-10T20:22:52.993Z,23.48
2023-05-10T20:25:20.252Z,31.63
2023-05-10T20:27:47.724Z,22.85
2023-05-10T20:30:15.234Z,16.58
2023-05-10T20:32:43.788Z,10.85
2023-05-10T20:35:11.387Z,17.95
2023-05-10T20:37:38.930Z,23.65
2023-05-10T20:40:06.148Z,12.07
2023-05-10T20:42:33.639Z,19.65
2023-05-10T20:45:01.098Z,14.32
2023-05-10T20:47:28.659Z,21.98
2023-05-10T20:49:55.946Z,11.23
2023-05-10T20:52:24.585Z,16.67
2023-05-10T20:54:51.944Z,22.02
2023-05-10T20:57:19.225Z,12.32
2023-05-10T20:59:46.456Z,12.55
2023-05-10T21:02:13.675Z,14.55
2023-05-10T21:04:41.069Z,22.27
2023-05-10T21:07:08.383Z,17.90
2023-05-10T21:09:35.880Z,19.33
2023-05-10T21:12:03.489Z,25.63
2023-05-10T21:14:31.148Z,19.02
2023-05-10T21:16:58.453Z,19.25
2023-05-10T21:19:25.715Z,16.23
2023-05-10T21:21:54.818Z,19.88
2023-05-10T21:24:22.271Z,31.50
2023-05-10T21:26:49.584Z,19.65
2023-05-10T21:29:16.964Z,21.77
2023-05-10T21:31:44.347Z,14.10
2023-05-10T21:34:11.744Z,20.63
2023-05-10T21:36:38.942Z,18.40
2023-05-10T21:39:06.195Z,15.52
2023-05-10T21:41:33.444Z,16.10
2023-05-10T21:44:00.720Z,13.80
2023-05-10T21:46:28.103Z,20.55
2023-05-10T21:48:55.324Z,14.85
2023-05-10T21:51:22.559Z,11.07
2023-05-10T21:53:49.872Z,14.45
2023-05-10T21:56:17.731Z,17.38
2023-05-10T21:58:44.949Z,14.32
2023-05-10T22:01:12.312Z,14.70
2023-05-10T22:03:39.610Z,16.42
2023-05-10T22:06:07.014Z,8.98
2023-05-10T22:08:34.244Z,16.33
2023-05-10T22:11:01.524Z,22.45
2023-05-10T22:13:28.723Z,15.07
2023-05-10T22:15:56.091Z,13.45
2023-05-10T22:18:23.415Z,13.30
2023-05-10T22:20:50.683Z,15.60
2023-05-10T22:23:17.916Z,16.25
2023-05-10T22:25:45.151Z,22.17
2023-05-10T22:28:12.472Z,16.70
2023-05-10T22:30:39.743Z,12.40
2023-05-10T22:33:07.014Z,14.23
2023-05-10T22:35:34.254Z,13.35
